Time;durP1;ratioP1;P1;durP2;ratioP2;P2;SDS_P1;SDS_P2;PMS_P1;PMS_P2;Temp;Humidity;BMP_temperature;BMP_pressure;BME280_temperature;BME280_humidity;BME280_pressure;Samples;Min_cycle;Max_cycle;Signal;HPM_P1;HPM_P2
2022/08/10 00:01:39;;;;;;;0.17;0.15;;;16.40;99.90;;;;;;5028289;28;20060;-78
2022/08/10 00:04:05;;;;;;;0.43;0.10;;;16.40;99.90;;;;;;5012160;28;20037;-76
2022/08/10 00:06:31;;;;;;;0.10;0.10;;;16.30;99.90;;;;;;5045611;28;20041;-76
2022/08/10 00:08:57;;;;;;;0.10;0.10;;;16.30;99.90;;;;;;5028251;28;21175;-76
2022/08/10 00:11:23;;;;;;;0.30;0.20;;;16.20;99.90;;;;;;5060908;28;20352;-76
2022/08/10 00:13:49;;;;;;;0.00;0.00;;;16.30;99.90;;;;;;5028576;28;20053;-76
2022/08/10 00:16:15;;;;;;;0.10;0.10;;;16.20;99.90;;;;;;5026929;28;20498;-78
2022/08/10 00:18:42;;;;;;;0.20;0.10;;;16.30;99.90;;;;;;5028366;28;20049;-78
2022/08/10 00:21:09;;;;;;;0.63;0.20;;;16.20;99.90;;;;;;5027858;28;20421;-78
2022/08/10 00:23:36;;;;;;;0.20;0.10;;;16.20;99.90;;;;;;5028533;28;20536;-78
2022/08/10 00:26:03;;;;;;;0.10;0.10;;;16.10;99.90;;;;;;5028501;28;20068;-78
2022/08/10 00:28:29;;;;;;;0.22;0.22;;;16.20;99.90;;;;;;5031243;28;20048;-78
2022/08/10 00:30:55;;;;;;;0.30;0.20;;;16.10;99.90;;;;;;5032492;28;20365;-78
2022/08/10 00:33:21;;;;;;;0.30;0.20;;;16.20;99.90;;;;;;5030582;28;20124;-78
2022/08/10 00:35:47;;;;;;;0.40;0.30;;;16.20;99.90;;;;;;5047058;28;20057;-78
2022/08/10 00:38:12;;;;;;;0.93;0.70;;;16.20;99.90;;;;;;5031981;28;20056;-78
2022/08/10 00:40:38;;;;;;;1.88;0.80;;;16.20;99.90;;;;;;5030001;28;20130;-79
2022/08/10 00:43:05;;;;;;;0.90;0.68;;;16.30;99.90;;;;;;5030941;28;20204;-78
2022/08/10 00:45:30;;;;;;;0.85;0.70;;;16.10;99.90;;;;;;5063191;28;20037;-78
2022/08/10 00:47:56;;;;;;;0.40;0.40;;;16.20;99.90;;;;;;5065203;28;20126;-78
2022/08/10 00:50:22;;;;;;;0.28;0.28;;;16.20;99.90;;;;;;5064424;28;20041;-78
2022/08/10 00:52:48;;;;;;;0.20;0.20;;;16.20;99.90;;;;;;5031906;28;20064;-79
2022/08/10 00:55:14;;;;;;;0.57;0.30;;;16.10;99.90;;;;;;5030627;28;20124;-78
2022/08/10 00:57:40;;;;;;;;;;;16.20;99.90;;;;;;5031304;28;20045;-78
2022/08/10 01:00:08;;;;;;;0.50;0.40;;;16.10;99.90;;;;;;5062252;28;20404;-78
2022/08/10 01:02:34;;;;;;;0.60;0.40;;;16.30;99.90;;;;;;5030022;28;20046;-78
2022/08/10 01:05:03;;;;;;;0.60;0.40;;;16.30;99.90;;;;;;5040376;28;20095;-78
2022/08/10 01:08:01;;;;;;;0.50;0.50;;;16.30;99.90;;;;;;5037797;28;20048;-78
2022/08/10 01:11:10;;;;;;;1.02;0.60;;;16.10;99.90;;;;;;5036564;28;20048;-78
2022/08/10 01:13:45;;;;;;;0.70;0.60;;;16.20;99.90;;;;;;4972181;28;20038;-78
2022/08/10 01:16:17;;;;;;;0.50;0.50;;;16.20;99.90;;;;;;4973983;28;20069;-78
2022/08/10 01:19:00;;;;;;;0.50;0.50;;;16.20;99.90;;;;;;5023747;28;20087;-78
2022/08/10 01:22:13;;;;;;;0.73;0.50;;;16.20;99.90;;;;;;5047245;28;20060;-78
2022/08/10 01:25:16;;;;;;;0.30;0.30;;;16.10;99.90;;;;;;5030684;28;20140;-78
2022/08/10 01:28:15;;;;;;;0.38;0.38;;;16.10;99.90;;;;;;5031340;28;20041;-78
2022/08/10 01:30:44;;;;;;;0.17;0.10;;;16.10;99.90;;;;;;5028487;28;20041;-78
2022/08/10 01:33:31;;;;;;;0.10;0.10;;;16.10;99.90;;;;;;5028583;28;20046;-78
2022/08/10 01:36:02;;;;;;;0.40;0.30;;;16.00;99.90;;;;;;5012580;28;20487;-78
2022/08/10 01:38:35;;;;;;;0.70;0.70;;;16.10;99.90;;;;;;5032839;28;20049;-78
2022/08/10 01:41:09;;;;;;;0.50;0.50;;;16.00;99.90;;;;;;5040079;28;20489;-78
2022/08/10 01:43:41;;;;;;;0.50;0.50;;;16.20;99.90;;;;;;5028267;28;20042;-78
2022/08/10 01:46:09;;;;;;;0.85;0.60;;;16.10;99.90;;;;;;5028739;28;20096;-78
2022/08/10 01:48:40;;;;;;;0.20;0.20;;;16.00;99.90;;;;;;5030215;28;20084;-78
2022/08/10 01:51:12;;;;;;;0.20;0.20;;;16.10;99.90;;;;;;5013883;28;20044;-78
2022/08/10 01:54:02;;;;;;;0.77;0.50;;;16.00;99.90;;;;;;5063582;28;20102;-78
2022/08/10 01:56:31;;;;;;;0.68;0.60;;;16.10;99.90;;;;;;5045140;28;20045;-78
2022/08/10 01:59:14;;;;;;;0.40;0.40;;;16.10;99.90;;;;;;5029931;28;20050;-78
2022/08/10 02:01:47;;;;;;;0.60;0.60;;;16.20;99.90;;;;;;5060839;28;20056;-78
2022/08/10 02:04:15;;;;;;;0.30;0.30;;;16.10;99.90;;;;;;5002379;28;20029;-78
2022/08/10 02:06:46;;;;;;;0.40;0.40;;;16.00;99.90;;;;;;5025931;28;20048;-78
2022/08/10 02:09:15;;;;;;;0.45;0.38;;;15.90;99.90;;;;;;5048468;28;20052;-78
2022/08/10 02:11:43;;;;;;;1.15;0.80;;;16.10;99.90;;;;;;5033492;28;20044;-78
2022/08/10 02:14:13;;;;;;;0.60;0.50;;;16.00;99.90;;;;;;4995936;28;20045;-78
2022/08/10 02:16:43;;;;;;;0.65;0.40;;;15.90;99.90;;;;;;5042213;28;20458;-76
2022/08/10 02:19:13;;;;;;;0.82;0.60;;;16.10;99.90;;;;;;5030205;28;20052;-76
2022/08/10 02:21:41;;;;;;;0.40;0.20;;;15.90;99.90;;;;;;5053985;28;20438;-76
2022/08/10 02:24:12;;;;;;;0.45;0.25;;;15.90;99.90;;;;;;5087556;28;20048;-78
2022/08/10 02:26:40;;;;;;;0.20;0.20;;;16.00;99.90;;;;;;5059090;28;20044;-78
2022/08/10 02:29:09;;;;;;;0.40;0.40;;;15.90;99.90;;;;;;5074061;28;20487;-78
2022/08/10 02:31:36;;;;;;;0.57;0.52;;;15.90;99.90;;;;;;5067074;28;20040;-78
2022/08/10 02:34:03;;;;;;;0.90;0.70;;;16.00;99.90;;;;;;5087398;28;20055;-78
2022/08/10 02:36:33;;;;;;;0.63;0.50;;;16.00;99.90;;;;;;5070231;28;20098;-76
2022/08/10 02:39:02;;;;;;;0.85;0.60;;;15.80;99.90;;;;;;5036105;28;20458;-76
2022/08/10 02:41:45;;;;;;;1.05;0.70;;;16.00;99.90;;;;;;5069754;28;20093;-76
2022/08/10 02:44:38;;;;;;;2.17;1.38;;;15.80;99.90;;;;;;5081111;28;20036;-76
2022/08/10 02:47:31;;;;;;;0.70;0.70;;;15.80;99.90;;;;;;5038483;28;20040;-76
2022/08/10 02:50:21;;;;;;;0.55;0.50;;;15.80;99.90;;;;;;5048359;28;20119;-76
2022/08/10 02:52:53;;;;;;;0.40;0.40;;;16.00;99.90;;;;;;5037388;28;20123;-76
2022/08/10 02:55:27;;;;;;;0.65;0.63;;;16.00;99.90;;;;;;5069131;28;20036;-76
2022/08/10 02:57:55;;;;;;;1.02;0.90;;;15.80;99.90;;;;;;5085478;28;20123;-77
2022/08/10 03:00:23;;;;;;;0.90;0.80;;;15.90;99.90;;;;;;5086526;28;20087;-78
2022/08/10 03:02:51;;;;;;;0.80;0.80;;;15.90;99.90;;;;;;5084572;28;20502;-78
2022/08/10 03:05:20;;;;;;;0.50;0.50;;;15.90;99.90;;;;;;5096751;28;20156;-78
2022/08/10 03:08:00;;;;;;;0.82;0.70;;;16.00;99.90;;;;;;5088212;28;20044;-78
2022/08/10 03:10:32;;;;;;;0.68;0.60;;;15.90;99.90;;;;;;5036029;28;20052;-78
2022/08/10 03:13:00;;;;;;;0.47;0.47;;;15.80;99.90;;;;;;5050999;28;20372;-78
2022/08/10 03:15:32;;;;;;;0.50;0.50;;;16.00;99.90;;;;;;5051458;28;20041;-78
2022/08/10 03:17:58;;;;;;;0.55;0.45;;;16.00;99.90;;;;;;5050929;28;20475;-78
2022/08/10 03:20:31;;;;;;;0.93;0.60;;;15.70;99.90;;;;;;5084561;28;20083;-78
2022/08/10 03:22:59;;;;;;;1.20;0.88;;;15.80;99.90;;;;;;5051544;28;20131;-78
2022/08/10 03:25:27;;;;;;;1.77;1.40;;;15.90;99.90;;;;;;5080974;28;20563;-78
2022/08/10 03:27:53;;;;;;;1.17;0.90;;;15.70;99.90;;;;;;5050636;28;20052;-78
2022/08/10 03:30:19;;;;;;;0.82;0.80;;;15.60;99.90;;;;;;5075525;28;20524;-78
2022/08/10 03:32:46;;;;;;;1.25;1.00;;;15.60;99.90;;;;;;5035797;28;20059;-79
2022/08/10 03:35:12;;;;;;;0.85;0.77;;;15.70;99.90;;;;;;5032889;28;20044;-78
2022/08/10 03:37:38;;;;;;;;;;;15.80;99.90;;;;;;5049832;28;20044;-78
2022/08/10 03:40:06;;;;;;;0.60;0.60;;;15.80;99.90;;;;;;5050342;28;20304;-78
2022/08/10 03:42:34;;;;;;;2.72;1.20;;;15.80;99.90;;;;;;5083923;28;20055;-78
2022/08/10 03:45:03;;;;;;;1.23;0.85;;;15.80;99.90;;;;;;5083932;28;20079;-78
2022/08/10 03:47:29;;;;;;;1.15;1.00;;;15.60;99.90;;;;;;5034119;28;20060;-78
2022/08/10 03:49:57;;;;;;;0.93;0.70;;;15.70;99.90;;;;;;5049810;28;20044;-78
2022/08/10 03:52:23;;;;;;;0.80;0.80;;;15.70;99.90;;;;;;5049548;28;20119;-78
2022/08/10 03:54:52;;;;;;;0.50;0.50;;;15.50;99.90;;;;;;5067737;28;20451;-78
2022/08/10 03:57:19;;;;;;;2.30;1.95;;;15.60;99.90;;;;;;5032259;28;20036;-78
2022/08/10 03:59:49;;;;;;;1.55;1.40;;;15.60;99.90;;;;;;5068489;28;20040;-78
2022/08/10 04:02:15;;;;;;;1.15;0.90;;;15.70;99.90;;;;;;5051850;28;20044;-78
2022/08/10 04:04:41;;;;;;;0.60;0.60;;;15.40;99.90;;;;;;5069113;28;20064;-78
2022/08/10 04:07:09;;;;;;;1.45;0.90;;;15.60;99.90;;;;;;5054493;28;20080;-78
2022/08/10 04:09:35;;;;;;;0.80;0.80;;;15.60;99.90;;;;;;5090052;28;20385;-78
2022/08/10 04:12:02;;;;;;;1.33;1.23;;;15.40;99.90;;;;;;5089519;28;20048;-78
2022/08/10 04:14:28;;;;;;;1.30;0.80;;;15.60;99.90;;;;;;5084228;28;20036;-79
2022/08/10 04:16:53;;;;;;;0.63;0.60;;;15.60;99.90;;;;;;5088865;28;20052;-79
2022/08/10 04:19:20;;;;;;;0.70;0.60;;;15.40;99.90;;;;;;5055551;28;20122;-79
2022/08/10 04:22:17;;;;;;;0.40;0.40;;;15.30;99.90;;;;;;5050449;28;20048;-79
2022/08/10 04:24:45;;;;;;;1.15;0.80;;;15.60;99.90;;;;;;5043781;28;20373;-78
2022/08/10 04:27:13;;;;;;;0.30;0.30;;;15.60;99.90;;;;;;5088137;28;20044;-78
2022/08/10 04:29:38;;;;;;;1.05;0.80;;;15.50;99.90;;;;;;5055565;28;20076;-78
2022/08/10 04:32:06;;;;;;;1.08;0.98;;;15.50;99.90;;;;;;5068819;28;20064;-77
2022/08/10 04:34:33;;;;;;;0.68;0.60;;;15.50;99.90;;;;;;5085345;28;20425;-76
2022/08/10 04:37:03;;;;;;;0.98;0.60;;;15.70;99.90;;;;;;5087362;28;20456;-75
2022/08/10 04:39:29;;;;;;;1.90;0.80;;;15.60;99.90;;;;;;5055694;28;20044;-82
2022/08/10 04:41:56;;;;;;;1.40;0.98;;;15.80;99.90;;;;;;5054926;28;20123;-78
2022/08/10 04:44:22;;;;;;;1.52;0.98;;;15.90;99.90;;;;;;5047018;28;20044;-78
2022/08/10 04:46:47;;;;;;;;;;;15.90;99.90;;;;;;5084317;28;20041;-78
2022/08/10 04:49:13;;;;;;;1.83;1.23;;;15.70;99.90;;;;;;5084132;28;19924;-78
2022/08/10 04:51:39;;;;;;;1.10;1.00;;;15.80;99.90;;;;;;5055865;28;20037;-78
2022/08/10 04:54:04;;;;;;;0.80;0.70;;;15.80;99.90;;;;;;5037934;28;20044;-79
2022/08/10 04:56:30;;;;;;;1.15;1.02;;;16.10;99.90;;;;;;5071354;28;20040;-78
2022/08/10 04:58:56;;;;;;;1.60;1.40;;;16.10;99.90;;;;;;5055611;28;20084;-79
2022/08/10 05:01:22;;;;;;;2.92;1.90;;;15.90;99.90;;;;;;5054730;28;20068;-79
2022/08/10 05:03:47;;;;;;;1.88;1.52;;;16.10;99.90;;;;;;5084208;28;20041;-79
2022/08/10 05:06:13;;;;;;;4.10;2.33;;;16.10;99.90;;;;;;5055009;28;20091;-79
2022/08/10 05:08:39;;;;;;;2.33;1.60;;;16.10;99.90;;;;;;5065609;28;20416;-80
2022/08/10 05:11:05;;;;;;;2.45;1.30;;;16.00;99.90;;;;;;5052515;28;20032;-78
2022/08/10 05:13:31;;;;;;;1.30;1.00;;;16.20;99.90;;;;;;5053505;28;20044;-79
2022/08/10 05:15:56;;;;;;;1.00;0.90;;;16.20;99.90;;;;;;5052593;28;20048;-79
2022/08/10 05:18:22;;;;;;;0.77;0.77;;;16.10;99.90;;;;;;5054713;28;20044;-79
2022/08/10 05:20:48;;;;;;;1.85;1.40;;;16.20;99.90;;;;;;5054288;28;20060;-79
2022/08/10 05:23:13;;;;;;;1.33;0.80;;;16.10;99.90;;;;;;5064904;28;20045;-78
2022/08/10 05:25:39;;;;;;;0.85;0.80;;;16.40;99.90;;;;;;5035600;28;20032;-76
2022/08/10 05:28:05;;;;;;;1.25;0.80;;;16.60;99.90;;;;;;5070022;28;20036;-76
2022/08/10 05:30:31;;;;;;;1.45;1.20;;;16.30;99.90;;;;;;5052668;28;20131;-75
2022/08/10 05:32:57;;;;;;;1.00;0.70;;;16.60;99.90;;;;;;5048170;28;20045;-75
2022/08/10 05:35:23;;;;;;;1.00;0.90;;;16.70;99.90;;;;;;5054197;28;20059;-76
2022/08/10 05:37:49;;;;;;;;;;;16.60;99.90;;;;;;5089157;28;20076;-76
2022/08/10 05:40:15;;;;;;;2.17;1.00;;;16.80;99.90;;;;;;5039291;28;19928;-76
2022/08/10 05:42:41;;;;;;;;;;;16.60;99.90;;;;;;5032853;28;20041;-75
2022/08/10 05:45:22;;;;;;;0.80;0.80;;;16.70;99.90;;;;;;5052175;28;19985;-75
2022/08/10 05:47:49;;;;;;;1.20;0.98;;;17.00;99.90;;;;;;5052848;28;20044;-75
2022/08/10 05:50:19;;;;;;;;;;;16.80;99.90;;;;;;5038200;28;20036;-75
2022/08/10 05:52:45;;;;;;;1.65;0.95;;;16.80;99.90;;;;;;5051930;28;19920;-75
2022/08/10 05:55:11;;;;;;;3.88;1.77;;;17.20;99.90;;;;;;5055689;28;20052;-75
2022/08/10 05:57:37;;;;;;;1.40;1.20;;;17.20;99.90;;;;;;5051825;28;21227;-76
2022/08/10 06:00:07;;;;;;;1.33;0.90;;;17.30;99.90;;;;;;5042221;28;20495;-76
2022/08/10 06:02:37;;;;;;;1.08;0.82;;;17.20;99.90;;;;;;5052351;28;20094;-78
2022/08/10 06:05:05;;;;;;;2.08;1.27;;;17.40;99.90;;;;;;5080601;28;20148;-76
2022/08/10 06:07:33;;;;;;;1.13;0.80;;;17.20;99.90;;;;;;5036492;28;20036;-76
2022/08/10 06:10:01;;;;;;;1.10;1.00;;;17.30;99.90;;;;;;5084888;28;20067;-76
2022/08/10 06:12:28;;;;;;;1.58;1.20;;;17.50;99.90;;;;;;5052654;28;20040;-75
2022/08/10 06:15:00;;;;;;;1.10;1.00;;;17.50;99.90;;;;;;5050771;28;20040;-75
2022/08/10 06:17:27;;;;;;;1.60;1.02;;;17.60;99.90;;;;;;5054588;28;20485;-76
2022/08/10 06:19:54;;;;;;;1.45;1.15;;;17.60;99.90;;;;;;5053516;28;20071;-75
2022/08/10 06:22:20;;;;;;;1.98;1.20;;;17.90;99.90;;;;;;5054558;28;20122;-75
2022/08/10 06:24:47;;;;;;;1.50;1.20;;;17.70;99.90;;;;;;5054572;28;20037;-75
2022/08/10 06:27:13;;;;;;;1.00;0.80;;;17.90;99.90;;;;;;5055612;28;20041;-75
2022/08/10 06:29:40;;;;;;;;;;;18.00;99.90;;;;;;5089272;28;20032;-75
2022/08/10 06:32:07;;;;;;;2.60;1.45;;;18.30;99.90;;;;;;5088496;28;19916;-75
2022/08/10 06:34:38;;;;;;;1.20;1.08;;;18.30;99.90;;;;;;5054593;28;20040;-75
2022/08/10 06:37:06;;;;;;;1.98;0.93;;;18.50;99.90;;;;;;5054548;28;20116;-75
2022/08/10 06:39:32;;;;;;;1.75;0.80;;;18.70;99.90;;;;;;5054288;28;20043;-75
2022/08/10 06:42:13;;;;;;;2.08;1.00;;;18.90;99.90;;;;;;5056217;28;20047;-75
2022/08/10 06:45:06;;;;;;;1.77;0.95;;;18.90;99.90;;;;;;5059112;28;20044;-75
2022/08/10 06:47:50;;;;;;;1.48;0.90;;;19.00;99.90;;;;;;5047715;28;20041;-75
2022/08/10 06:50:38;;;;;;;1.00;0.73;;;19.30;99.90;;;;;;5072566;28;20138;-76
2022/08/10 06:53:14;;;;;;;1.85;1.00;;;19.40;99.90;;;;;;5087365;28;20080;-75
2022/08/10 06:55:42;;;;;;;;;;;19.50;99.90;;;;;;5054531;28;20046;-75
2022/08/10 06:58:10;;;;;;;2.20;1.00;;;19.40;99.90;;;;;;5087902;28;19916;-75
2022/08/10 07:00:39;;;;;;;1.45;0.90;;;19.50;99.90;;;;;;5054425;28;20055;-75
2022/08/10 07:03:10;;;;;;;1.90;1.30;;;19.60;99.90;;;;;;5053407;28;20075;-76
2022/08/10 07:05:41;;;;;;;2.15;1.00;;;19.70;99.90;;;;;;5054445;28;20094;-75
2022/08/10 07:08:08;;;;;;;1.45;0.85;;;19.90;99.90;;;;;;5054042;28;20048;-75
2022/08/10 07:10:36;;;;;;;1.40;1.10;;;20.10;99.90;;;;;;5071068;28;20136;-75
2022/08/10 07:13:03;;;;;;;1.70;1.10;;;20.10;99.90;;;;;;5053744;28;20127;-75
2022/08/10 07:15:30;;;;;;;0.85;0.70;;;20.30;99.90;;;;;;5087260;28;20040;-75
2022/08/10 07:17:57;;;;;;;1.85;1.00;;;20.40;99.90;;;;;;5037562;28;20329;-75
2022/08/10 07:20:24;;;;;;;1.83;1.10;;;20.50;99.90;;;;;;5086980;28;20068;-75
2022/08/10 07:22:53;;;;;;;2.22;1.20;;;20.60;99.90;;;;;;5036859;28;20079;-75
2022/08/10 07:25:24;;;;;;;1.58;0.85;;;20.80;99.90;;;;;;5036542;28;20072;-75
2022/08/10 07:27:51;;;;;;;1.00;0.80;;;21.20;99.90;;;;;;5046549;28;20228;-75
2022/08/10 07:30:17;;;;;;;0.52;0.50;;;21.50;99.90;;;;;;5052680;28;20036;-75
2022/08/10 07:32:43;;;;;;;;;;;22.20;99.90;;;;;;5086922;28;20101;-75
2022/08/10 07:35:15;;;;;;;1.90;1.08;;;22.60;99.90;;;;;;5053585;28;19922;-75
2022/08/10 07:37:45;;;;;;;1.15;0.80;;;22.50;99.90;;;;;;5052078;28;20040;-75
2022/08/10 07:40:13;;;;;;;1.10;0.70;;;22.60;99.90;;;;;;5036269;28;20044;-75
2022/08/10 07:42:41;;;;;;;1.38;0.90;;;22.60;99.90;;;;;;5037320;28;20036;-75
2022/08/10 07:45:07;;;;;;;1.08;0.70;;;22.60;99.90;;;;;;5052729;28;20051;-75
2022/08/10 07:47:40;;;;;;;0.57;0.57;;;22.80;99.90;;;;;;5069879;28;20110;-75
2022/08/10 07:50:09;;;;;;;0.93;0.82;;;23.00;99.90;;;;;;5053217;28;20041;-75
2022/08/10 07:52:37;;;;;;;0.63;0.60;;;23.00;99.90;;;;;;5053050;28;20113;-75
2022/08/10 07:55:05;;;;;;;0.90;0.60;;;23.10;99.90;;;;;;5051364;28;20109;-75
2022/08/10 07:57:35;;;;;;;0.75;0.50;;;23.50;99.90;;;;;;5071527;28;20388;-75
2022/08/10 08:00:06;;;;;;;0.85;0.70;;;23.80;99.90;;;;;;5051346;28;20052;-77
2022/08/10 08:02:52;;;;;;;1.08;0.60;;;24.00;99.90;;;;;;5052313;28;20051;-77
2022/08/10 08:05:24;;;;;;;0.77;0.60;;;24.10;99.90;;;;;;5051713;28;20041;-76
2022/08/10 08:07:52;;;;;;;0.90;0.52;;;24.30;99.90;;;;;;5053280;28;20036;-76
2022/08/10 08:10:21;;;;;;;0.65;0.50;;;24.30;99.90;;;;;;5052624;28;20052;-76
2022/08/10 08:12:47;;;;;;;1.13;0.68;;;24.50;99.90;;;;;;5067860;28;20048;-76
2022/08/10 08:15:17;;;;;;;1.05;0.57;;;24.40;99.90;;;;;;5053067;28;20051;-76
2022/08/10 08:17:44;;;;;;;0.82;0.50;;;24.30;99.90;;;;;;5053376;28;20040;-76
2022/08/10 08:20:11;;;;;;;1.05;0.65;;;24.30;99.90;;;;;;5052835;28;20064;-76
2022/08/10 08:22:38;;;;;;;1.98;0.50;;;24.30;99.90;;;;;;5052885;28;20070;-76
2022/08/10 08:25:05;;;;;;;0.68;0.50;;;24.50;99.90;;;;;;5053081;28;20097;-76
2022/08/10 08:27:32;;;;;;;0.40;0.40;;;24.80;99.90;;;;;;5053045;28;20058;-76
2022/08/10 08:30:00;;;;;;;0.40;0.40;;;25.10;99.90;;;;;;5053619;28;20162;-76
2022/08/10 08:32:30;;;;;;;0.73;0.52;;;25.20;99.90;;;;;;5052645;28;20052;-76
2022/08/10 08:35:00;;;;;;;3.03;1.02;;;25.10;99.90;;;;;;5052819;28;20464;-76
2022/08/10 08:37:29;;;;;;;0.75;0.63;;;24.80;99.90;;;;;;5052815;28;20036;-76
2022/08/10 08:39:55;;;;;;;1.27;0.60;;;24.80;99.90;;;;;;5086428;28;20040;-76
2022/08/10 08:42:57;;;;;;;0.82;0.60;;;24.80;99.80;;;;;;5069182;28;20048;-76
2022/08/10 08:45:35;;;;;;;2.28;1.00;;;24.80;99.90;;;;;;5022012;28;20044;-76
2022/08/10 08:48:10;;;;;;;0.65;0.60;;;24.50;99.90;;;;;;5053345;28;20032;-76
2022/08/10 08:51:00;;;;;;;1.25;0.90;;;24.70;99.90;;;;;;5056678;28;20063;-76
2022/08/10 08:53:29;;;;;;;0.70;0.60;;;24.80;99.90;;;;;;5056491;28;20053;-76
2022/08/10 08:56:00;;;;;;;0.90;0.60;;;25.00;98.80;;;;;;5057093;28;20044;-76
2022/08/10 08:58:46;;;;;;;0.55;0.55;;;25.20;99.10;;;;;;5056290;28;20103;-76
2022/08/10 09:01:46;;;;;;;1.27;0.73;;;25.40;98.60;;;;;;5056262;28;20492;-76
2022/08/10 09:04:15;;;;;;;0.65;0.45;;;25.50;98.40;;;;;;5056186;28;20452;-76
2022/08/10 09:07:02;;;;;;;1.02;0.60;;;25.70;98.00;;;;;;5056551;28;20159;-76
2022/08/10 09:09:33;;;;;;;1.17;0.40;;;25.80;99.50;;;;;;5056168;28;20044;-76
2022/08/10 09:12:18;;;;;;;1.05;0.60;;;25.90;97.90;;;;;;5056105;28;20040;-76
2022/08/10 09:14:51;;;;;;;0.52;0.50;;;26.20;97.90;;;;;;5055708;28;20246;-76
2022/08/10 09:17:54;;;;;;;0.70;0.40;;;26.40;97.50;;;;;;5056101;28;20059;-76
2022/08/10 09:20:47;;;;;;;1.15;0.60;;;26.50;97.40;;;;;;5055586;28;20139;-76
2022/08/10 09:23:23;;;;;;;2.05;0.85;;;26.50;97.50;;;;;;5056050;28;20056;-76
2022/08/10 09:26:16;;;;;;;1.35;0.65;;;25.90;97.10;;;;;;5039270;28;20040;-76
2022/08/10 09:28:43;;;;;;;0.98;0.60;;;25.90;99.20;;;;;;5073827;28;20387;-77
2022/08/10 09:31:10;;;;;;;1.88;0.70;;;25.60;98.10;;;;;;5055734;28;20040;-76
2022/08/10 09:34:08;;;;;;;0.82;0.40;;;25.70;97.60;;;;;;5055644;28;20403;-76
2022/08/10 09:36:59;;;;;;;1.10;0.52;;;26.10;97.30;;;;;;5055839;28;20083;-76
2022/08/10 09:39:46;;;;;;;0.93;0.40;;;25.90;97.00;;;;;;5056301;28;20056;-76
2022/08/10 09:42:41;;;;;;;0.63;0.50;;;26.10;97.70;;;;;;5055913;28;20503;-76
2022/08/10 09:45:22;;;;;;;1.10;0.50;;;26.20;97.70;;;;;;5055557;28;20047;-76
2022/08/10 09:48:13;;;;;;;0.50;0.40;;;26.50;96.80;;;;;;5054846;28;20075;-76
2022/08/10 09:51:09;;;;;;;0.52;0.40;;;26.80;96.10;;;;;;5055967;28;20158;-76
2022/08/10 09:53:57;;;;;;;0.60;0.60;;;27.00;95.10;;;;;;5048390;28;20066;-76
2022/08/10 09:56:47;;;;;;;0.63;0.50;;;26.80;95.50;;;;;;5054732;28;20563;-76
2022/08/10 09:59:29;;;;;;;0.40;0.40;;;26.90;96.20;;;;;;5065708;28;20384;-76
2022/08/10 10:02:08;;;;;;;0.32;0.30;;;27.00;95.60;;;;;;5055018;28;20044;-76
2022/08/10 10:04:46;;;;;;;1.23;0.70;;;27.20;95.20;;;;;;5052694;28;20040;-76
2022/08/10 10:07:23;;;;;;;1.23;0.55;;;27.10;97.00;;;;;;5054311;28;20040;-76
2022/08/10 10:10:13;;;;;;;0.75;0.40;;;27.20;95.70;;;;;;5054650;28;20076;-76
2022/08/10 10:13:02;;;;;;;0.60;0.40;;;27.00;94.30;;;;;;5040109;28;20055;-76
2022/08/10 10:15:42;;;;;;;0.75;0.40;;;26.90;95.10;;;;;;5088426;28;20044;-76
2022/08/10 10:18:29;;;;;;;0.35;0.35;;;27.10;94.80;;;;;;5071347;28;20127;-76
2022/08/10 10:21:13;;;;;;;0.70;0.30;;;27.20;94.80;;;;;;5087967;28;20084;-76
2022/08/10 10:24:10;;;;;;;0.52;0.30;;;27.30;95.90;;;;;;5054268;28;20044;-76
2022/08/10 10:26:57;;;;;;;0.40;0.30;;;27.30;95.20;;;;;;5068498;28;20361;-76
2022/08/10 10:30:07;;;;;;;0.40;0.30;;;27.70;95.00;;;;;;5053225;28;20040;-77
2022/08/10 10:33:00;;;;;;;0.30;0.30;;;28.00;94.40;;;;;;5008179;28;20547;-76
2022/08/10 10:35:40;;;;;;;0.40;0.40;;;28.20;94.10;;;;;;5050978;28;20041;-76
2022/08/10 10:38:08;;;;;;;0.20;0.20;;;28.40;93.50;;;;;;5036934;28;20144;-76
2022/08/10 10:41:06;;;;;;;0.35;0.30;;;28.50;93.80;;;;;;5071104;28;20091;-76
2022/08/10 10:43:59;;;;;;;0.45;0.40;;;28.60;92.80;;;;;;5070441;28;20463;-76
2022/08/10 10:46:44;;;;;;;1.75;0.80;;;28.60;93.40;;;;;;5068545;28;20483;-76
2022/08/10 10:49:31;;;;;;;0.52;0.30;;;28.40;93.50;;;;;;5037604;28;20123;-78
2022/08/10 10:52:13;;;;;;;2.22;0.40;;;28.60;93.00;;;;;;5091705;28;20040;-76
2022/08/10 10:55:00;;;;;;;0.60;0.32;;;28.60;93.70;;;;;;5052475;28;20040;-76
2022/08/10 10:57:50;;;;;;;0.38;0.30;;;28.70;92.10;;;;;;5040530;28;20041;-76
2022/08/10 11:00:20;;;;;;;1.30;0.50;;;28.90;93.80;;;;;;5037394;28;20029;-76
2022/08/10 11:03:04;;;;;;;0.30;0.30;;;28.50;92.30;;;;;;5053706;28;20044;-76
2022/08/10 11:06:04;;;;;;;0.70;0.50;;;28.20;92.40;;;;;;5034938;28;20369;-76
2022/08/10 11:08:34;;;;;;;0.35;0.28;;;28.40;92.90;;;;;;5011252;28;20671;-77
2022/08/10 11:11:11;;;;;;;1.17;0.40;;;28.50;91.60;;;;;;5029585;28;20168;-79
2022/08/10 11:14:00;;;;;;;1.20;0.70;;;28.60;91.70;;;;;;5052269;28;20040;-76
2022/08/10 11:16:50;;;;;;;1.33;0.70;;;28.60;93.20;;;;;;5063267;28;20036;-77
2022/08/10 11:19:53;;;;;;;0.40;0.38;;;28.60;92.40;;;;;;5032020;28;20119;-77
2022/08/10 11:22:51;;;;;;;0.65;0.30;;;28.40;92.00;;;;;;5028991;28;20056;-77
2022/08/10 11:25:23;;;;;;;0.65;0.50;;;28.60;91.70;;;;;;5044040;28;20072;-77
2022/08/10 11:28:03;;;;;;;0.57;0.40;;;28.60;91.50;;;;;;5046623;28;20037;-77
2022/08/10 11:30:59;;;;;;;0.70;0.47;;;28.70;91.20;;;;;;5047586;28;20114;-77
2022/08/10 11:33:37;;;;;;;0.40;0.40;;;28.60;91.20;;;;;;5049451;28;20036;-77
2022/08/10 11:36:14;;;;;;;1.35;0.55;;;28.80;91.50;;;;;;5049892;28;20045;-77
2022/08/10 11:39:24;;;;;;;1.95;0.60;;;28.60;91.50;;;;;;5030810;28;20075;-77
2022/08/10 11:41:55;;;;;;;0.93;0.40;;;28.60;91.80;;;;;;5047299;28;20084;-76
2022/08/10 11:44:44;;;;;;;0.40;0.40;;;28.80;91.30;;;;;;5079433;28;20039;-76
2022/08/10 11:47:18;;;;;;;0.60;0.40;;;28.90;91.60;;;;;;5041829;28;20495;-77
2022/08/10 11:50:05;;;;;;;0.80;0.30;;;29.00;91.30;;;;;;5045864;28;20040;-77
2022/08/10 11:52:52;;;;;;;0.57;0.40;;;29.40;90.50;;;;;;5034547;28;20074;-77
2022/08/10 11:55:20;;;;;;;0.30;0.30;;;29.70;90.40;;;;;;5048442;28;20414;-76
2022/08/10 11:57:50;;;;;;;0.10;0.10;;;29.80;90.10;;;;;;5048504;28;20040;-77
2022/08/10 12:00:17;;;;;;;0.45;0.30;;;29.90;90.10;;;;;;5048745;28;20049;-77
2022/08/10 12:02:55;;;;;;;0.85;0.35;;;29.90;89.70;;;;;;5049855;28;20036;-77
2022/08/10 12:05:27;;;;;;;0.30;0.30;;;29.90;90.00;;;;;;5048946;28;20381;-77
2022/08/10 12:07:55;;;;;;;0.65;0.40;;;30.00;89.30;;;;;;5043614;28;20110;-77
2022/08/10 12:10:22;;;;;;;0.40;0.40;;;30.00;88.60;;;;;;5027984;28;20182;-77
2022/08/10 12:12:57;;;;;;;0.35;0.20;;;30.00;90.00;;;;;;5051315;28;20400;-77
2022/08/10 12:15:33;;;;;;;0.25;0.20;;;30.10;90.00;;;;;;5052067;28;20067;-76
2022/08/10 12:18:05;;;;;;;0.63;0.30;;;30.30;88.50;;;;;;5052390;28;20474;-77
2022/08/10 12:20:37;;;;;;;0.90;0.30;;;30.20;88.10;;;;;;5052053;28;20132;-77
2022/08/10 12:23:32;;;;;;;0.98;0.57;;;30.20;87.50;;;;;;5053262;28;20496;-77
2022/08/10 12:26:25;;;;;;;0.60;0.50;;;29.70;86.60;;;;;;5056596;28;20073;-76
2022/08/10 12:28:57;;;;;;;0.45;0.32;;;29.60;88.80;;;;;;5039739;28;20186;-76
2022/08/10 12:31:29;;;;;;;0.90;0.50;;;29.70;90.60;;;;;;5056880;28;20143;-76
2022/08/10 12:34:15;;;;;;;0.40;0.40;;;29.60;89.80;;;;;;5056613;28;20075;-76
2022/08/10 12:36:46;;;;;;;0.40;0.28;;;29.60;89.60;;;;;;5056380;28;20064;-77
2022/08/10 12:39:28;;;;;;;0.75;0.40;;;29.70;88.90;;;;;;5039769;28;20052;-76
2022/08/10 12:42:11;;;;;;;0.55;0.35;;;30.00;88.20;;;;;;5056179;28;20056;-77
2022/08/10 12:45:01;;;;;;;0.30;0.30;;;30.10;88.10;;;;;;5056082;28;20048;-76
2022/08/10 12:47:36;;;;;;;1.23;0.30;;;30.30;87.40;;;;;;5056144;28;20044;-76
2022/08/10 12:50:14;;;;;;;0.35;0.35;;;30.40;86.60;;;;;;5055697;28;20501;-76
2022/08/10 12:53:02;;;;;;;0.43;0.30;;;30.50;87.00;;;;;;5056189;28;20080;-76
2022/08/10 12:55:30;;;;;;;0.50;0.38;;;30.50;88.00;;;;;;5056339;28;20056;-76
2022/08/10 12:57:57;;;;;;;0.70;0.30;;;30.40;87.20;;;;;;5056142;28;20131;-76
2022/08/10 13:00:33;;;;;;;1.10;0.40;;;30.50;89.00;;;;;;5055815;28;20128;-77
2022/08/10 13:03:01;;;;;;;0.85;0.45;;;30.40;87.30;;;;;;5055792;28;20046;-76
2022/08/10 13:05:29;;;;;;;0.43;0.32;;;30.40;85.90;;;;;;5055992;28;20072;-76
2022/08/10 13:10:51;;;;;;;0.75;0.30;;;29.90;87.00;;;;;;5055782;28;20056;-76
2022/08/10 13:13:23;;;;;;;0.32;0.30;;;29.80;86.60;;;;;;5055754;28;20044;-76
2022/08/10 13:15:51;;;;;;;0.50;0.40;;;29.90;86.60;;;;;;5055679;28;20040;-76
2022/08/10 13:18:33;;;;;;;0.55;0.40;;;30.00;86.70;;;;;;5038827;28;20094;-76
2022/08/10 13:21:06;;;;;;;0.22;0.22;;;30.20;86.20;;;;;;5038679;28;20068;-76
2022/08/10 13:24:01;;;;;;;0.93;0.40;;;30.20;87.60;;;;;;5055493;28;20091;-76
2022/08/10 13:26:30;;;;;;;0.43;0.28;;;30.10;87.10;;;;;;5040797;28;20041;-76